Terminal Aerodrome Forecast
Issued by NWS Wilmington, OH

Current Version | Previous Version | Text Only | Print | Product List | Glossary Off
Versions: 1 2 3 4 5 6 7 8 9 10 11 12 13 14 15 16 17 18 19 20 21 22 23 24

701
FTUS41 KILN 241126
TAFCMH
TAF
KCMH 241126Z 2412/2512 14004KT P6SM BKN250
     FM241400 17007KT P6SM SCT090 BKN200
     FM241800 19010G20KT P6SM BKN040
     FM242000 19010G20KT P6SM VCTS BKN040CB
     FM250000 18005KT P6SM SCT050 BKN200=

USA.gov is the U.S. government's official web portal to all federal, state and local government web resources and services.